Time;durP1;ratioP1;P1;durP2;ratioP2;P2;SDS_P1;SDS_P2;PMS_P1;PMS_P2;Temp;Humidity;BMP_temperature;BMP_pressure;BME280_temperature;BME280_humidity;BME280_pressure;Samples;Min_cycle;Max_cycle;Signal;HPM_P1;HPM_P2
2023/02/24 00:01:26;;;;;;;7.32;1.20;;;4.20;99.90;;;;;;5056201;28;20032;-78
2023/02/24 00:03:55;;;;;;;5.47;1.23;;;4.40;99.90;;;;;;5057313;28;20072;-79
2023/02/24 00:06:23;;;;;;;9.30;1.20;;;4.20;99.90;;;;;;5098686;28;20123;-78
2023/02/24 00:08:50;;;;;;;5.72;1.30;;;4.20;99.90;;;;;;5109453;28;20044;-78
2023/02/24 00:11:17;;;;;;;4.57;1.27;;;4.20;99.90;;;;;;5075694;28;20503;-78
2023/02/24 00:13:48;;;;;;;5.32;1.30;;;4.20;99.90;;;;;;5107447;28;20054;-78
2023/02/24 00:16:16;;;;;;;5.90;1.48;;;4.10;99.90;;;;;;5055365;28;20051;-78
2023/02/24 00:18:44;;;;;;;9.40;1.63;;;4.20;99.90;;;;;;5055889;28;20068;-78
2023/02/24 00:21:14;;;;;;;7.95;1.45;;;4.10;99.90;;;;;;5071675;28;20032;-78
2023/02/24 00:23:45;;;;;;;8.70;1.88;;;4.20;99.90;;;;;;5072439;28;20139;-78
2023/02/24 00:26:16;;;;;;;9.38;1.30;;;4.20;99.90;;;;;;5072658;28;20044;-78
2023/02/24 00:28:43;;;;;;;6.13;1.20;;;4.10;99.90;;;;;;5080483;28;20056;-78
2023/02/24 00:31:15;;;;;;;5.30;1.20;;;4.10;99.90;;;;;;5052395;28;20040;-78
2023/02/24 00:33:44;;;;;;;8.30;1.25;;;4.10;99.90;;;;;;5085377;28;20139;-78
2023/02/24 00:36:22;;;;;;;4.60;1.20;;;4.10;99.90;;;;;;5068167;28;20161;-78
2023/02/24 00:38:57;;;;;;;5.55;1.08;;;4.00;99.90;;;;;;5067326;28;20036;-78
2023/02/24 00:41:30;;;;;;;5.15;1.50;;;3.90;99.90;;;;;;5085509;28;20033;-78
2023/02/24 00:44:06;;;;;;;7.22;1.17;;;3.90;99.90;;;;;;5068245;28;20033;-79
2023/02/24 00:46:36;;;;;;;4.88;1.20;;;3.80;99.90;;;;;;5068550;28;20515;-78
2023/02/24 00:49:05;;;;;;;9.07;1.35;;;3.70;99.90;;;;;;5057509;28;20041;-78
2023/02/24 00:51:40;;;;;;;12.00;1.45;;;3.70;99.90;;;;;;5063842;28;20041;-78
2023/02/24 00:54:08;;;;;;;2.95;1.13;;;3.60;99.90;;;;;;5082961;28;20528;-78
2023/02/24 00:56:35;;;;;;;6.93;1.40;;;4.10;99.90;;;;;;5052315;28;20067;-78
2023/02/24 00:59:02;;;;;;;5.72;1.30;;;3.50;99.90;;;;;;5051620;28;20036;-78
2023/02/24 01:01:31;;;;;;;5.28;1.10;;;3.50;99.90;;;;;;5034615;28;20402;-78
2023/02/24 01:04:09;;;;;;;7.18;1.73;;;3.50;99.90;;;;;;5069018;28;20043;-78
2023/02/24 01:06:43;;;;;;;11.02;1.40;;;3.40;99.90;;;;;;5053918;28;20137;-78
2023/02/24 01:09:13;;;;;;;6.88;1.48;;;3.40;99.90;;;;;;5062183;28;20041;-78
2023/02/24 01:14:30;;;;;;;4.65;1.10;;;3.20;99.90;;;;;;5068453;28;20084;-78
2023/02/24 01:16:57;;;;;;;5.18;1.20;;;3.20;99.90;;;;;;5071864;28;20036;-78
2023/02/24 01:19:30;;;;;;;6.38;1.27;;;3.20;99.90;;;;;;5088202;28;20489;-78
2023/02/24 01:21:59;;;;;;;10.23;1.30;;;3.60;99.90;;;;;;5088579;28;20124;-78
2023/02/24 01:24:27;;;;;;;5.50;1.40;;;3.20;99.90;;;;;;5055371;28;20080;-78
2023/02/24 01:26:56;;;;;;;7.03;1.30;;;3.20;99.90;;;;;;5055354;28;20074;-78
2023/02/24 01:29:22;;;;;;;8.23;1.58;;;3.30;99.90;;;;;;5055725;28;20780;-78
2023/02/24 01:31:50;;;;;;;8.48;1.52;;;3.10;99.90;;;;;;5052007;28;20085;-78
2023/02/24 01:34:17;;;;;;;9.90;1.48;;;3.30;99.90;;;;;;5035773;28;20080;-78
2023/02/24 01:36:44;;;;;;;9.65;1.33;;;3.10;99.90;;;;;;5051802;28;20041;-78
2023/02/24 01:39:12;;;;;;;5.03;1.30;;;3.10;99.90;;;;;;5023105;28;20047;-78
2023/02/24 01:41:44;;;;;;;7.35;1.50;;;3.10;99.90;;;;;;5035562;28;20038;-78
2023/02/24 01:44:15;;;;;;;10.95;1.92;;;3.30;99.90;;;;;;5067925;28;20084;-78
2023/02/24 01:46:47;;;;;;;5.45;1.30;;;3.10;99.90;;;;;;5051840;28;20053;-78
2023/02/24 01:49:18;;;;;;;8.48;1.60;;;3.20;99.90;;;;;;5051435;28;20045;-78
2023/02/24 01:52:01;;;;;;;7.20;2.10;;;3.00;99.90;;;;;;5051643;28;20068;-78
2023/02/24 01:54:37;;;;;;;7.60;1.20;;;3.00;99.90;;;;;;5051316;28;20132;-78
2023/02/24 01:57:06;;;;;;;4.13;1.38;;;2.90;99.90;;;;;;5068030;28;20047;-78
2023/02/24 01:59:34;;;;;;;8.27;1.27;;;2.90;99.90;;;;;;5035532;28;20092;-78
2023/02/24 02:02:06;;;;;;;13.40;2.13;;;2.90;99.90;;;;;;5068313;28;20041;-78
2023/02/24 02:04:46;;;;;;;4.40;1.20;;;2.90;99.90;;;;;;5071299;28;20037;-79
2023/02/24 02:07:16;;;;;;;5.55;1.65;;;2.90;99.90;;;;;;5071248;28;20045;-78
2023/02/24 02:09:44;;;;;;;6.82;1.23;;;2.90;99.90;;;;;;5071749;28;20157;-78
2023/02/24 02:12:11;;;;;;;9.05;1.23;;;2.80;99.90;;;;;;5054210;28;20131;-79
2023/02/24 02:14:51;;;;;;;3.83;1.20;;;2.80;99.90;;;;;;5071240;28;20083;-78
2023/02/24 02:18:01;;;;;;;7.80;1.35;;;2.70;99.90;;;;;;5070524;28;20107;-78
2023/02/24 02:21:05;;;;;;;6.05;1.25;;;2.90;99.90;;;;;;5057171;28;20559;-78
2023/02/24 02:24:03;;;;;;;8.80;1.60;;;2.70;99.90;;;;;;5050924;28;20036;-79
2023/02/24 02:26:52;;;;;;;6.65;1.33;;;2.70;99.90;;;;;;5050985;28;20077;-78
2023/02/24 02:29:45;;;;;;;7.63;1.40;;;2.70;99.90;;;;;;5065115;28;20048;-78
2023/02/24 02:32:15;;;;;;;9.85;1.15;;;2.70;99.90;;;;;;5073335;28;20044;-79
2023/02/24 02:34:54;;;;;;;4.88;1.58;;;2.70;99.90;;;;;;5091221;28;20037;-78
2023/02/24 02:37:33;;;;;;;7.32;1.60;;;2.70;99.90;;;;;;5090658;28;20127;-78
2023/02/24 02:40:31;;;;;;;8.55;1.40;;;2.70;99.90;;;;;;5074080;28;20075;-78
2023/02/24 02:43:10;;;;;;;9.40;1.40;;;2.70;99.90;;;;;;5063425;28;20521;-78
2023/02/24 02:45:51;;;;;;;9.85;1.70;;;2.70;99.90;;;;;;5074002;28;20048;-78
2023/02/24 02:48:33;;;;;;;6.82;1.35;;;2.70;99.90;;;;;;5073827;28;20493;-78
2023/02/24 02:51:32;;;;;;;7.75;1.50;;;2.70;99.90;;;;;;5090797;28;20052;-78
2023/02/24 02:54:26;;;;;;;11.23;1.80;;;2.70;99.90;;;;;;5070017;28;20052;-78
2023/02/24 02:57:11;;;;;;;9.02;1.58;;;2.80;99.90;;;;;;5044158;28;20056;-78
2023/02/24 02:59:48;;;;;;;6.22;1.38;;;2.80;99.90;;;;;;5090240;28;20037;-78
2023/02/24 03:02:26;;;;;;;9.32;1.40;;;2.80;99.90;;;;;;5090117;28;20040;-78
2023/02/24 03:04:58;;;;;;;7.60;1.60;;;2.80;99.90;;;;;;5073531;28;20036;-78
2023/02/24 03:07:30;;;;;;;8.43;1.20;;;2.90;99.90;;;;;;5073357;28;20040;-78
2023/02/24 03:10:02;;;;;;;8.55;1.50;;;3.10;99.90;;;;;;5073442;28;20075;-78
2023/02/24 03:12:31;;;;;;;11.00;1.70;;;3.00;99.90;;;;;;5073108;28;20044;-78
2023/02/24 03:15:05;;;;;;;9.07;1.23;;;3.30;99.90;;;;;;5073428;28;20446;-78
2023/02/24 03:17:40;;;;;;;5.65;1.63;;;3.00;99.90;;;;;;5099563;28;20032;-78
2023/02/24 03:20:23;;;;;;;5.90;1.35;;;3.00;99.90;;;;;;5110508;28;20065;-78
2023/02/24 03:23:01;;;;;;;8.65;1.48;;;3.10;99.90;;;;;;5109197;28;20396;-78
2023/02/24 03:25:53;;;;;;;8.32;1.48;;;3.10;99.90;;;;;;5093126;28;20492;-78
2023/02/24 03:28:49;;;;;;;7.25;1.23;;;3.20;99.90;;;;;;5094425;28;20075;-79
2023/02/24 03:31:40;;;;;;;4.25;1.30;;;3.10;99.90;;;;;;5073457;28;20047;-78
2023/02/24 03:34:22;;;;;;;4.43;1.38;;;3.50;99.90;;;;;;5043129;28;20056;-78
2023/02/24 03:36:49;;;;;;;6.47;1.27;;;3.50;99.90;;;;;;5073035;28;20481;-78
2023/02/24 03:39:16;;;;;;;9.63;1.67;;;3.20;99.90;;;;;;5072988;28;20036;-78
2023/02/24 03:41:55;;;;;;;6.05;1.33;;;3.20;99.90;;;;;;5056093;28;20503;-78
2023/02/24 03:44:23;;;;;;;8.05;1.75;;;3.30;99.90;;;;;;5072636;28;20044;-78
2023/02/24 03:46:51;;;;;;;4.05;1.00;;;3.20;99.90;;;;;;5089407;28;20048;-78
2023/02/24 03:49:18;;;;;;;11.38;1.83;;;3.20;99.90;;;;;;5056222;28;20048;-78
2023/02/24 03:52:09;;;;;;;8.15;1.45;;;3.30;99.90;;;;;;5051001;28;20047;-78
2023/02/24 03:54:51;;;;;;;10.07;1.52;;;3.30;99.90;;;;;;5089334;28;20540;-78
2023/02/24 03:57:36;;;;;;;7.45;1.40;;;3.30;99.90;;;;;;5089223;28;20573;-78
2023/02/24 04:00:33;;;;;;;11.68;1.73;;;3.30;99.90;;;;;;5099487;28;20040;-78
2023/02/24 04:03:11;;;;;;;4.07;1.10;;;3.30;99.90;;;;;;5089445;28;20074;-78
2023/02/24 04:06:00;;;;;;;7.15;1.42;;;3.30;99.90;;;;;;5072573;28;20048;-78
2023/02/24 04:08:47;;;;;;;8.23;1.25;;;3.30;99.90;;;;;;5072671;28;20381;-78
2023/02/24 04:11:23;;;;;;;;;;;3.30;99.90;;;;;;5109714;28;20040;-78
2023/02/24 04:14:01;;;;;;;6.97;1.55;;;3.30;99.90;;;;;;5092471;28;19915;-78
2023/02/24 04:16:47;;;;;;;5.93;1.42;;;3.30;99.90;;;;;;5091991;28;20040;-78
2023/02/24 04:19:18;;;;;;;7.68;1.25;;;3.30;99.90;;;;;;5092370;28;20042;-78
2023/02/24 04:21:49;;;;;;;8.75;1.10;;;3.30;99.90;;;;;;5092337;28;20071;-78
2023/02/24 04:24:26;;;;;;;4.82;1.15;;;3.30;99.90;;;;;;5092593;28;20042;-78
2023/02/24 04:26:57;;;;;;;5.32;0.95;;;3.30;99.90;;;;;;5092443;28;20426;-78
2023/02/24 04:29:27;;;;;;;6.28;1.02;;;3.40;99.90;;;;;;5074518;28;20058;-78
2023/02/24 04:32:01;;;;;;;5.20;1.27;;;3.30;99.90;;;;;;5070662;28;20036;-78
2023/02/24 04:34:31;;;;;;;14.68;1.30;;;3.30;99.90;;;;;;5086464;28;20040;-79
2023/02/24 04:37:01;;;;;;;7.90;1.20;;;3.70;99.90;;;;;;5100468;28;20079;-78
2023/02/24 04:39:29;;;;;;;6.38;1.40;;;3.40;99.90;;;;;;5074468;28;20563;-79
2023/02/24 04:41:57;;;;;;;6.30;1.23;;;3.30;99.90;;;;;;5071896;28;20106;-78
2023/02/24 04:44:25;;;;;;;8.00;1.13;;;3.30;99.90;;;;;;5071158;28;20505;-78
2023/02/24 04:46:51;;;;;;;9.80;2.20;;;3.30;99.90;;;;;;5055594;28;20052;-78
2023/02/24 04:49:19;;;;;;;10.40;1.30;;;3.40;99.90;;;;;;5055857;28;20043;-78
2023/02/24 04:51:48;;;;;;;14.70;1.30;;;3.30;99.90;;;;;;5079952;28;20041;-78
2023/02/24 04:54:16;;;;;;;7.20;1.10;;;3.60;99.90;;;;;;5072075;28;20081;-78
2023/02/24 04:56:49;;;;;;;3.88;0.70;;;3.30;99.90;;;;;;5071580;28;20036;-78
2023/02/24 04:59:20;;;;;;;5.38;1.00;;;2.90;99.90;;;;;;5088435;28;20768;-78
2023/02/24 05:01:51;;;;;;;13.05;2.58;;;3.60;99.90;;;;;;5088499;28;20068;-78
2023/02/24 05:04:18;;;;;;;5.78;1.30;;;3.30;99.90;;;;;;5072505;28;20451;-78
2023/02/24 05:06:45;;;;;;;11.75;1.58;;;3.40;99.90;;;;;;5088313;28;20041;-78
2023/02/24 05:09:18;;;;;;;6.82;1.05;;;3.80;99.90;;;;;;5088657;28;20055;-78
2023/02/24 05:11:47;;;;;;;6.15;1.27;;;3.30;99.90;;;;;;5091451;28;20044;-78
2023/02/24 05:14:16;;;;;;;10.05;1.17;;;3.40;99.90;;;;;;5092096;28;20044;-78
2023/02/24 05:16:45;;;;;;;10.23;1.20;;;3.40;99.90;;;;;;5091846;28;20040;-78
2023/02/24 05:22:05;;;;;;;8.93;1.30;;;3.40;99.90;;;;;;5102715;28;20048;-78
2023/02/24 05:24:33;;;;;;;7.13;0.95;;;3.40;99.90;;;;;;5055561;28;20072;-78
2023/02/24 05:27:02;;;;;;;4.53;1.13;;;3.50;99.90;;;;;;5072129;28;20123;-78
2023/02/24 05:29:32;;;;;;;7.15;1.23;;;3.40;99.90;;;;;;5088377;28;20131;-79
2023/02/24 05:32:00;;;;;;;6.53;1.50;;;3.90;99.90;;;;;;5071683;28;20048;-78
2023/02/24 05:34:29;;;;;;;3.83;1.00;;;3.60;99.90;;;;;;5057985;28;20404;-78
2023/02/24 05:36:58;;;;;;;4.78;0.90;;;3.50;99.90;;;;;;5087990;28;20050;-78
2023/02/24 05:39:25;;;;;;;6.05;1.10;;;3.50;99.90;;;;;;5088284;28;20040;-78
2023/02/24 05:41:55;;;;;;;9.55;1.23;;;3.50;99.90;;;;;;5071266;28;20040;-78
2023/02/24 05:44:24;;;;;;;7.63;1.20;;;3.50;99.90;;;;;;5070897;28;20039;-78
2023/02/24 05:46:57;;;;;;;6.22;1.00;;;3.50;99.90;;;;;;5074260;28;20052;-78
2023/02/24 05:49:28;;;;;;;8.18;1.10;;;3.50;99.90;;;;;;5075334;28;20040;-78
2023/02/24 05:51:59;;;;;;;4.32;1.10;;;3.50;99.90;;;;;;5075099;28;20043;-78
2023/02/24 05:54:36;;;;;;;6.75;1.23;;;3.40;99.90;;;;;;5091496;28;20047;-78
2023/02/24 05:57:07;;;;;;;3.78;1.00;;;3.40;99.90;;;;;;5111374;28;20036;-78
2023/02/24 05:59:34;;;;;;;8.57;1.20;;;3.50;99.90;;;;;;5111651;28;20047;-78
2023/02/24 06:02:05;;;;;;;4.97;1.27;;;3.40;99.90;;;;;;5094968;28;20036;-78
2023/02/24 06:04:38;;;;;;;9.38;1.40;;;4.00;99.90;;;;;;5096963;28;20037;-77
2023/02/24 06:07:12;;;;;;;4.38;1.00;;;3.40;99.90;;;;;;5074774;28;20044;-78
2023/02/24 06:09:41;;;;;;;4.32;0.80;;;3.50;99.90;;;;;;5091169;28;20497;-79
2023/02/24 06:12:08;;;;;;;4.25;1.15;;;3.40;99.90;;;;;;5074985;28;20083;-78
2023/02/24 06:14:35;;;;;;;2.92;0.60;;;3.40;99.90;;;;;;5066906;28;20040;-77
2023/02/24 06:17:03;;;;;;;5.20;1.00;;;3.40;99.90;;;;;;5057819;28;20047;-78
2023/02/24 06:19:33;;;;;;;5.50;1.40;;;3.40;99.90;;;;;;5058179;28;20119;-78
2023/02/24 06:22:00;;;;;;;2.90;1.17;;;3.40;99.90;;;;;;5042226;28;20040;-78
2023/02/24 06:24:29;;;;;;;3.78;0.80;;;3.30;99.90;;;;;;5082335;28;20512;-78
2023/02/24 06:27:01;;;;;;;5.20;1.30;;;3.30;99.90;;;;;;5077562;28;20048;-77
2023/02/24 06:29:29;;;;;;;4.68;1.25;;;3.30;99.90;;;;;;5094197;28;20142;-78
2023/02/24 06:31:56;;;;;;;5.38;0.93;;;3.90;99.90;;;;;;5077763;28;20056;-78
2023/02/24 06:34:25;;;;;;;3.90;1.00;;;3.30;99.90;;;;;;5111326;28;20123;-78
2023/02/24 06:36:52;;;;;;;5.00;1.08;;;3.50;99.90;;;;;;5086205;28;20470;-78
2023/02/24 06:39:19;;;;;;;6.50;1.13;;;3.30;99.90;;;;;;5074217;28;20067;-78
2023/02/24 06:41:50;;;;;;;4.18;1.20;;;3.30;99.90;;;;;;5073975;28;20456;-78
2023/02/24 06:44:17;;;;;;;7.57;1.98;;;3.70;99.90;;;;;;5073659;28;20464;-78
2023/02/24 06:46:45;;;;;;;4.95;1.55;;;3.40;99.90;;;;;;5059446;28;20097;-79
2023/02/24 06:49:12;;;;;;;9.20;1.10;;;3.40;99.90;;;;;;5077407;28;20541;-77
2023/02/24 06:51:39;;;;;;;8.88;1.40;;;3.40;99.90;;;;;;5076976;28;20075;-78
2023/02/24 06:54:06;;;;;;;5.90;0.90;;;3.40;99.90;;;;;;5109691;28;20051;-78
2023/02/24 06:56:37;;;;;;;7.50;1.20;;;3.30;99.90;;;;;;5092244;28;20032;-78
2023/02/24 06:59:05;;;;;;;8.27;1.10;;;3.80;99.90;;;;;;5092576;28;20040;-78
2023/02/24 07:01:33;;;;;;;6.20;1.10;;;3.40;99.90;;;;;;5092703;28;20043;-78
2023/02/24 07:06:39;;;;;;;6.78;1.17;;;3.70;99.90;;;;;;5094025;28;20048;-78
2023/02/24 07:09:11;;;;;;;10.90;1.15;;;3.40;99.90;;;;;;5089703;28;20040;-78
2023/02/24 07:11:41;;;;;;;7.43;1.30;;;3.70;99.90;;;;;;5073523;28;20048;-78
2023/02/24 07:14:10;;;;;;;7.97;1.73;;;3.50;99.90;;;;;;5073558;28;20104;-78
2023/02/24 07:16:40;;;;;;;5.47;1.77;;;3.80;99.90;;;;;;5057389;28;20417;-78
2023/02/24 07:19:10;;;;;;;9.60;1.42;;;3.50;99.90;;;;;;5089552;28;20041;-78
2023/02/24 07:21:49;;;;;;;7.95;1.45;;;3.50;99.90;;;;;;5090442;28;20036;-78
2023/02/24 07:24:23;;;;;;;5.40;1.30;;;3.60;99.90;;;;;;5057459;28;20127;-78
2023/02/24 07:26:59;;;;;;;7.97;1.73;;;3.50;99.90;;;;;;5057881;28;20067;-78
2023/02/24 07:29:28;;;;;;;7.18;1.70;;;3.80;99.90;;;;;;5078004;28;20171;-78
2023/02/24 07:32:02;;;;;;;7.07;1.45;;;3.50;99.90;;;;;;5056498;28;20051;-77
2023/02/24 07:34:29;;;;;;;4.50;1.98;;;3.60;99.90;;;;;;5073274;28;20099;-78
2023/02/24 07:36:56;;;;;;;8.07;2.03;;;3.60;99.90;;;;;;5072537;28;20074;-78
2023/02/24 07:39:24;;;;;;;6.05;2.28;;;3.60;99.90;;;;;;5056226;28;20455;-78
2023/02/24 07:41:54;;;;;;;6.10;1.90;;;3.60;99.90;;;;;;5097799;28;20043;-78
2023/02/24 07:44:23;;;;;;;4.53;1.67;;;3.60;99.90;;;;;;5086040;28;20094;-78
2023/02/24 07:46:50;;;;;;;6.38;1.70;;;3.60;99.90;;;;;;5072709;28;20413;-78
2023/02/24 07:49:21;;;;;;;9.38;1.90;;;3.70;99.90;;;;;;5088340;28;20047;-78
2023/02/24 07:51:51;;;;;;;15.48;2.20;;;3.70;99.90;;;;;;5078895;28;20036;-78
2023/02/24 07:54:20;;;;;;;9.13;2.10;;;3.70;99.90;;;;;;5105510;28;20048;-78
2023/02/24 07:56:55;;;;;;;12.57;2.03;;;3.70;99.90;;;;;;5074192;28;20067;-78
2023/02/24 07:59:27;;;;;;;8.75;1.60;;;3.80;99.90;;;;;;5108513;28;20046;-78
2023/02/24 08:01:55;;;;;;;6.32;1.58;;;3.70;99.90;;;;;;5081801;28;20040;-79
2023/02/24 08:04:25;;;;;;;5.00;2.10;;;3.80;99.90;;;;;;5063081;28;20044;-78
2023/02/24 08:06:55;;;;;;;5.97;1.73;;;3.70;99.90;;;;;;5094185;28;20101;-78
2023/02/24 08:12:20;;;;;;;4.60;2.13;;;3.80;99.90;;;;;;5097362;28;20048;-78
2023/02/24 08:14:51;;;;;;;6.88;1.98;;;3.80;99.90;;;;;;5109066;28;20051;-78
2023/02/24 08:17:25;;;;;;;12.02;2.17;;;3.80;99.90;;;;;;5108633;28;20500;-78
2023/02/24 08:22:45;;;;;;;5.85;1.90;;;4.20;99.90;;;;;;5086447;28;20048;-78
2023/02/24 08:25:17;;;;;;;11.55;2.03;;;3.90;99.90;;;;;;5072335;28;20135;-78
2023/02/24 08:27:47;;;;;;;6.25;1.85;;;3.90;99.90;;;;;;5072405;28;20475;-78
2023/02/24 08:30:22;;;;;;;7.03;2.17;;;4.00;99.90;;;;;;5086067;28;20849;-78
2023/02/24 08:32:55;;;;;;;8.67;1.93;;;4.00;99.90;;;;;;5093753;28;20102;-78
2023/02/24 08:35:31;;;;;;;5.63;1.73;;;4.00;99.90;;;;;;5076217;28;20325;-78
2023/02/24 08:38:03;;;;;;;10.52;2.35;;;4.00;99.90;;;;;;5107995;28;20044;-78
2023/02/24 08:43:29;;;;;;;5.88;2.20;;;4.10;99.90;;;;;;5098262;28;20114;-79
2023/02/24 08:46:04;;;;;;;8.70;2.47;;;4.10;99.90;;;;;;5086443;28;20035;-79
2023/02/24 08:48:49;;;;;;;6.80;1.95;;;4.10;99.90;;;;;;5108439;28;20043;-78
2023/02/24 08:51:22;;;;;;;7.30;1.98;;;4.20;99.90;;;;;;5107548;28;20040;-77
2023/02/24 08:53:52;;;;;;;6.55;1.90;;;4.20;99.90;;;;;;5078666;28;20128;-77
2023/02/24 08:56:27;;;;;;;5.85;1.73;;;4.20;99.90;;;;;;5082007;28;20086;-78
2023/02/24 08:58:56;;;;;;;8.73;1.52;;;4.20;99.90;;;;;;5073873;28;20037;-77
2023/02/24 09:01:33;;;;;;;7.53;1.98;;;4.30;99.90;;;;;;5077303;28;20043;-77
2023/02/24 09:04:06;;;;;;;8.70;2.13;;;4.50;99.90;;;;;;5074261;28;20040;-77
2023/02/24 09:06:33;;;;;;;8.38;2.70;;;4.30;99.90;;;;;;5081321;28;20051;-78
2023/02/24 09:09:19;;;;;;;8.07;2.13;;;4.30;99.90;;;;;;5073892;28;20044;-76
2023/02/24 09:11:56;;;;;;;;;;;4.30;99.90;;;;;;5106369;28;20052;-76
2023/02/24 09:14:26;;;;;;;4.72;1.70;;;4.40;99.90;;;;;;5081088;28;19916;-77
2023/02/24 09:17:00;;;;;;;6.30;2.00;;;4.40;99.90;;;;;;5074567;28;20128;-79
2023/02/24 09:19:39;;;;;;;4.75;1.60;;;4.40;99.90;;;;;;5072214;28;20037;-77
2023/02/24 09:22:27;;;;;;;6.32;2.08;;;4.40;99.90;;;;;;5080979;28;20036;-77
2023/02/24 09:25:16;;;;;;;8.57;1.77;;;4.40;99.90;;;;;;5108068;28;20131;-77
2023/02/24 09:28:06;;;;;;;6.93;1.70;;;4.60;99.90;;;;;;5091814;28;20398;-77
2023/02/24 09:30:49;;;;;;;8.18;2.20;;;4.60;99.90;;;;;;5087783;28;20050;-77
2023/02/24 09:33:37;;;;;;;5.38;1.70;;;4.70;99.90;;;;;;5092868;28;20037;-77
2023/02/24 09:36:09;;;;;;;8.45;1.75;;;4.70;99.90;;;;;;5099477;28;20032;-78
2023/02/24 09:41:52;;;;;;;7.72;1.90;;;5.00;99.90;;;;;;5114044;28;20044;-77
2023/02/24 09:44:27;;;;;;;13.37;3.47;;;4.70;99.90;;;;;;5114461;28;20779;-77
2023/02/24 09:46:59;;;;;;;10.40;3.17;;;4.70;99.90;;;;;;5097283;28;20508;-78
2023/02/24 09:49:55;;;;;;;9.10;2.72;;;4.80;99.90;;;;;;5091210;28;20123;-77
2023/02/24 09:52:40;;;;;;;5.70;2.45;;;4.70;99.90;;;;;;5073926;28;20052;-78
2023/02/24 09:55:44;;;;;;;9.95;2.42;;;4.80;99.90;;;;;;5096931;28;20039;-78
2023/02/24 09:58:27;;;;;;;9.80;2.88;;;4.80;99.90;;;;;;5079294;28;20548;-77
2023/02/24 10:01:29;;;;;;;3.83;1.63;;;4.80;99.90;;;;;;5110712;28;20048;-77
2023/02/24 10:04:17;;;;;;;3.05;1.52;;;4.80;99.90;;;;;;5105515;28;20056;-77
2023/02/24 10:06:49;;;;;;;4.88;1.50;;;4.90;99.90;;;;;;5085568;28;20123;-78
2023/02/24 10:09:25;;;;;;;4.00;1.83;;;4.90;99.90;;;;;;5111215;28;20058;-78
2023/02/24 10:12:03;;;;;;;3.47;1.60;;;4.90;99.90;;;;;;5094417;28;20040;-78
2023/02/24 10:15:17;;;;;;;2.47;1.13;;;5.00;99.90;;;;;;5094118;28;20040;-78
2023/02/24 10:17:46;;;;;;;2.83;1.30;;;5.10;99.90;;;;;;5111203;28;20048;-79
2023/02/24 10:20:38;;;;;;;5.45;1.75;;;5.10;99.90;;;;;;5093984;28;20052;-79
2023/02/24 10:23:45;;;;;;;7.00;1.70;;;5.20;99.90;;;;;;5094020;28;20051;-79
2023/02/24 10:26:43;;;;;;;;;;;5.30;99.90;;;;;;5094630;28;20048;-79
2023/02/24 10:29:28;;;;;;;6.50;1.83;;;5.50;99.90;;;;;;5082785;28;20377;-80
2023/02/24 10:32:05;;;;;;;9.55;1.70;;;5.60;99.90;;;;;;5050404;28;20046;-79
2023/02/24 10:34:32;;;;;;;7.13;1.58;;;5.60;99.90;;;;;;5066678;28;20046;-79
2023/02/24 10:37:11;;;;;;;5.50;1.52;;;5.70;99.90;;;;;;5036069;28;20091;-79
2023/02/24 10:39:42;;;;;;;11.88;1.88;;;5.80;99.90;;;;;;5050714;28;20033;-79
2023/02/24 10:42:14;;;;;;;10.60;1.63;;;6.00;99.90;;;;;;5057187;28;20095;-79
2023/02/24 10:44:52;;;;;;;4.28;1.60;;;6.20;99.90;;;;;;5053937;28;20045;-78
2023/02/24 10:47:32;;;;;;;12.80;2.00;;;6.40;99.90;;;;;;5066700;28;20081;-78
2023/02/24 10:50:05;;;;;;;7.93;1.77;;;6.50;99.90;;;;;;5050034;28;20064;-78
2023/02/24 10:55:27;;;;;;;14.10;1.95;;;6.70;99.90;;;;;;5066448;28;20045;-78
2023/02/24 10:58:05;;;;;;;12.77;1.85;;;6.60;99.90;;;;;;5052582;28;20056;-78
2023/02/24 11:03:46;;;;;;;20.15;2.20;;;6.70;99.90;;;;;;5076556;28;20048;-78
2023/02/24 11:09:31;;;;;;;23.95;2.67;;;6.70;99.90;;;;;;5086671;28;20102;-78
2023/02/24 11:18:33;;;;;;;14.65;2.42;;;7.00;99.90;;;;;;5085808;28;20139;-78
2023/02/24 11:21:01;;;;;;;21.80;3.03;;;7.10;99.90;;;;;;5069361;28;20076;-78
2023/02/24 11:23:43;;;;;;;18.52;2.28;;;7.10;99.90;;;;;;5085633;28;20497;-79
2023/02/24 11:26:17;;;;;;;12.13;2.38;;;7.10;99.90;;;;;;5057557;28;20052;-78
2023/02/24 11:29:29;;;;;;;13.90;2.03;;;7.20;99.90;;;;;;5065635;28;20037;-79
2023/02/24 11:32:30;;;;;;;12.75;2.35;;;7.40;99.90;;;;;;5046612;28;20506;-79
2023/02/24 11:35:10;;;;;;;15.82;2.13;;;7.50;99.90;;;;;;5065512;28;20041;-79
2023/02/24 11:37:42;;;;;;;18.33;2.22;;;7.60;99.90;;;;;;5065473;28;20559;-78
2023/02/24 11:40:22;;;;;;;13.25;1.63;;;7.60;99.90;;;;;;5065353;28;20080;-78
2023/02/24 11:42:55;;;;;;;12.50;1.92;;;7.50;99.90;;;;;;5065472;28;20103;-78
2023/02/24 11:45:50;;;;;;;14.55;2.13;;;7.60;99.90;;;;;;5048907;28;20041;-78
2023/02/24 11:48:35;;;;;;;13.05;2.05;;;7.60;99.90;;;;;;5049105;28;20042;-79
2023/02/24 11:51:33;;;;;;;21.15;2.55;;;7.50;99.90;;;;;;5049422;28;20041;-79
2023/02/24 11:54:13;;;;;;;16.58;2.67;;;7.60;99.90;;;;;;5064030;28;20052;-79
2023/02/24 11:56:44;;;;;;;10.50;2.25;;;7.80;99.90;;;;;;5048913;28;20033;-79
2023/02/24 11:59:29;;;;;;;16.80;1.80;;;7.80;99.90;;;;;;5049515;28;20095;-78
2023/02/24 12:02:21;;;;;;;19.02;2.50;;;7.90;99.90;;;;;;5049288;28;20033;-78
2023/02/24 12:05:16;;;;;;;15.18;2.13;;;8.00;99.90;;;;;;5049188;28;20034;-78
2023/02/24 12:08:03;;;;;;;20.40;2.50;;;8.10;99.90;;;;;;5048577;28;20494;-79
2023/02/24 12:10:31;;;;;;;11.85;2.33;;;8.00;99.90;;;;;;5048792;28;20038;-79
2023/02/24 12:13:10;;;;;;;7.88;1.92;;;7.80;99.90;;;;;;5048931;28;20056;-79
2023/02/24 12:16:09;;;;;;;19.65;2.88;;;7.60;99.90;;;;;;5071721;28;20207;-79
2023/02/24 12:18:39;;;;;;;23.15;3.42;;;7.60;99.90;;;;;;5068944;28;20079;-79
2023/02/24 12:21:10;;;;;;;13.30;2.30;;;7.70;99.90;;;;;;5052209;28;20133;-79
2023/02/24 12:23:41;;;;;;;7.10;1.20;;;7.70;99.90;;;;;;5064894;28;20410;-79
2023/02/24 12:26:30;;;;;;;7.82;1.25;;;7.40;99.90;;;;;;5073488;28;20409;-78
2023/02/24 12:29:06;;;;;;;3.22;0.88;;;7.00;99.90;;;;;;5062378;28;20053;-79
2023/02/24 12:31:44;;;;;;;4.75;1.00;;;6.80;99.90;;;;;;5103841;28;20048;-79
2023/02/24 12:34:19;;;;;;;7.90;0.93;;;6.50;99.90;;;;;;5080925;28;20039;-79
2023/02/24 12:36:58;;;;;;;5.78;1.00;;;6.40;99.90;;;;;;5092079;28;20045;-78
2023/02/24 12:39:34;;;;;;;3.78;0.85;;;6.30;99.90;;;;;;5091972;28;20500;-79
2023/02/24 12:42:21;;;;;;;5.10;1.13;;;6.30;99.90;;;;;;5077015;28;20076;-79
2023/02/24 12:45:01;;;;;;;10.25;1.02;;;6.30;99.90;;;;;;5071789;28;20127;-79
2023/02/24 12:47:55;;;;;;;7.10;1.58;;;6.40;99.90;;;;;;5071740;28;20040;-79
2023/02/24 12:50:51;;;;;;;12.18;1.40;;;6.50;99.90;;;;;;5074065;28;20045;-79
2023/02/24 12:53:22;;;;;;;11.75;1.27;;;6.70;99.90;;;;;;5088291;28;20040;-79
2023/02/24 12:56:16;;;;;;;11.20;1.30;;;6.90;99.90;;;;;;5066820;28;20076;-79
2023/02/24 12:58:47;;;;;;;8.80;1.00;;;7.10;99.90;;;;;;5092275;28;20040;-79
2023/02/24 13:01:34;;;;;;;12.40;1.35;;;7.30;99.90;;;;;;5075711;28;20040;-79
2023/02/24 13:04:28;;;;;;;17.90;1.55;;;7.50;99.90;;;;;;5092498;28;20404;-78
2023/02/24 13:07:30;;;;;;;8.27;1.20;;;7.50;99.90;;;;;;5075732;28;20075;-79
2023/02/24 13:10:11;;;;;;;7.13;1.02;;;7.50;99.90;;;;;;5031612;28;20108;-79
2023/02/24 13:12:38;;;;;;;5.63;1.20;;;7.50;99.90;;;;;;5092127;28;20552;-79
2023/02/24 13:15:14;;;;;;;6.43;1.02;;;7.60;99.90;;;;;;5092198;28;20131;-79
2023/02/24 13:17:47;;;;;;;8.50;1.40;;;7.50;99.90;;;;;;5111094;28;20040;-79
2023/02/24 13:20:35;;;;;;;13.65;1.60;;;7.40;99.90;;;;;;5116123;28;20032;-78
2023/02/24 13:23:17;;;;;;;7.80;1.42;;;7.40;99.90;;;;;;5103027;28;20039;-79
2023/02/24 13:25:51;;;;;;;9.13;1.20;;;7.50;99.90;;;;;;5095061;28;20403;-79
2023/02/24 13:28:32;;;;;;;4.93;0.75;;;7.50;99.90;;;;;;5095310;28;20407;-79
2023/02/24 13:31:11;;;;;;;6.35;1.08;;;7.50;99.90;;;;;;5095195;28;20114;-79
2023/02/24 13:33:40;;;;;;;2.40;0.80;;;7.60;99.90;;;;;;5082600;28;20044;-79
2023/02/24 13:36:21;;;;;;;2.42;0.73;;;7.60;99.90;;;;;;5075366;28;20036;-79
2023/02/24 13:39:09;;;;;;;4.47;0.70;;;7.50;99.90;;;;;;5074999;28;20040;-79
2023/02/24 13:41:39;;;;;;;2.95;0.60;;;7.40;99.90;;;;;;5061060;28;20053;-79
2023/02/24 13:44:21;;;;;;;2.65;0.50;;;7.50;99.90;;;;;;5088707;28;20039;-79
2023/02/24 13:46:54;;;;;;;2.17;0.50;;;7.40;99.90;;;;;;5111483;28;20040;-79
2023/02/24 13:49:26;;;;;;;3.08;0.50;;;7.40;99.90;;;;;;5095124;28;20039;-79
2023/02/24 13:52:00;;;;;;;4.13;1.00;;;7.30;99.90;;;;;;5094851;28;20792;-79
2023/02/24 13:54:53;;;;;;;4.75;0.60;;;7.20;99.90;;;;;;5094913;28;20093;-79
2023/02/24 13:57:53;;;;;;;3.38;0.70;;;7.10;99.90;;;;;;5075459;28;20044;-79
2023/02/24 14:00:26;;;;;;;2.28;0.63;;;7.10;99.90;;;;;;5075116;28;20040;-79
2023/02/24 14:02:54;;;;;;;5.97;1.05;;;7.00;99.90;;;;;;5074352;28;20094;-79
2023/02/24 14:05:26;;;;;;;4.22;0.68;;;6.90;99.90;;;;;;5090745;28;20081;-78
2023/02/24 14:07:54;;;;;;;2.00;0.43;;;6.80;99.90;;;;;;5130979;28;20545;-77
2023/02/24 14:10:24;;;;;;;2.75;0.47;;;6.80;99.90;;;;;;5115338;28;20058;-77
2023/02/24 14:13:16;;;;;;;1.17;0.43;;;6.80;99.90;;;;;;5105162;28;20044;-78
2023/02/24 14:15:45;;;;;;;2.70;0.45;;;6.90;99.90;;;;;;5095810;28;20037;-77